sensor_id;sensor_type;location;lat;lon;timestamp;P1;durP1;ratioP1;P2;durP2;ratioP2
20421;SDS011;10370;53.102;18.034;2023-07-31T00:03:21;7.95;;;4.30;;
20421;SDS011;10370;53.102;18.034;2023-07-31T00:08:43;8.25;;;3.85;;
20421;SDS011;10370;53.102;18.034;2023-07-31T00:14:06;7.00;;;4.20;;
20421;SDS011;10370;53.102;18.034;2023-07-31T00:19:28;6.00;;;3.95;;
20421;SDS011;10370;53.102;18.034;2023-07-31T00:24:51;9.25;;;3.92;;
20421;SDS011;10370;53.102;18.034;2023-07-31T00:30:14;7.50;;;3.97;;
20421;SDS011;10370;53.102;18.034;2023-07-31T00:35:38;6.88;;;3.60;;
20421;SDS011;10370;53.102;18.034;2023-07-31T00:41:00;5.70;;;3.75;;
20421;SDS011;10370;53.102;18.034;2023-07-31T00:46:23;6.97;;;3.58;;
20421;SDS011;10370;53.102;18.034;2023-07-31T00:51:45;6.47;;;4.00;;
20421;SDS011;10370;53.102;18.034;2023-07-31T00:57:08;9.85;;;4.28;;
20421;SDS011;10370;53.102;18.034;2023-07-31T01:02:31;8.68;;;3.72;;
20421;SDS011;10370;53.102;18.034;2023-07-31T01:08:04;7.60;;;3.92;;
20421;SDS011;10370;53.102;18.034;2023-07-31T01:13:37;6.93;;;3.85;;
20421;SDS011;10370;53.102;18.034;2023-07-31T01:19:00;5.22;;;3.97;;
20421;SDS011;10370;53.102;18.034;2023-07-31T01:24:23;7.82;;;4.15;;
20421;SDS011;10370;53.102;18.034;2023-07-31T01:30:09;8.02;;;4.25;;
20421;SDS011;10370;53.102;18.034;2023-07-31T01:35:36;7.53;;;4.70;;
20421;SDS011;10370;53.102;18.034;2023-07-31T01:40:59;8.50;;;4.97;;
20421;SDS011;10370;53.102;18.034;2023-07-31T01:46:22;6.70;;;4.20;;
20421;SDS011;10370;53.102;18.034;2023-07-31T01:51:44;8.50;;;4.50;;
20421;SDS011;10370;53.102;18.034;2023-07-31T01:57:07;11.82;;;4.93;;
20421;SDS011;10370;53.102;18.034;2023-07-31T02:02:29;8.45;;;4.60;;
20421;SDS011;10370;53.102;18.034;2023-07-31T02:07:52;9.65;;;4.93;;
20421;SDS011;10370;53.102;18.034;2023-07-31T02:13:15;9.07;;;4.80;;
20421;SDS011;10370;53.102;18.034;2023-07-31T02:18:37;8.88;;;4.53;;
20421;SDS011;10370;53.102;18.034;2023-07-31T02:24:00;9.15;;;5.30;;
20421;SDS011;10370;53.102;18.034;2023-07-31T02:29:23;8.10;;;4.68;;
20421;SDS011;10370;53.102;18.034;2023-07-31T02:34:45;7.00;;;4.65;;
20421;SDS011;10370;53.102;18.034;2023-07-31T02:40:08;9.05;;;4.72;;
20421;SDS011;10370;53.102;18.034;2023-07-31T02:45:31;6.65;;;4.65;;
20421;SDS011;10370;53.102;18.034;2023-07-31T02:50:53;8.40;;;4.85;;
20421;SDS011;10370;53.102;18.034;2023-07-31T02:56:16;9.35;;;4.90;;
20421;SDS011;10370;53.102;18.034;2023-07-31T03:01:42;8.38;;;4.85;;
20421;SDS011;10370;53.102;18.034;2023-07-31T03:07:05;10.68;;;4.75;;
20421;SDS011;10370;53.102;18.034;2023-07-31T03:12:27;12.55;;;5.22;;
20421;SDS011;10370;53.102;18.034;2023-07-31T03:17:50;7.75;;;4.80;;
20421;SDS011;10370;53.102;18.034;2023-07-31T03:23:12;8.20;;;5.00;;
20421;SDS011;10370;53.102;18.034;2023-07-31T03:28:35;7.13;;;4.85;;
20421;SDS011;10370;53.102;18.034;2023-07-31T03:33:58;8.98;;;4.80;;
20421;SDS011;10370;53.102;18.034;2023-07-31T03:39:20;8.90;;;4.65;;
20421;SDS011;10370;53.102;18.034;2023-07-31T03:44:43;8.05;;;4.50;;
20421;SDS011;10370;53.102;18.034;2023-07-31T03:50:06;9.32;;;4.70;;
20421;SDS011;10370;53.102;18.034;2023-07-31T03:55:28;8.18;;;4.72;;
20421;SDS011;10370;53.102;18.034;2023-07-31T04:00:51;9.68;;;4.22;;
20421;SDS011;10370;53.102;18.034;2023-07-31T04:06:13;9.93;;;4.30;;
20421;SDS011;10370;53.102;18.034;2023-07-31T04:11:40;8.48;;;4.35;;
20421;SDS011;10370;53.102;18.034;2023-07-31T04:17:02;9.55;;;4.22;;
20421;SDS011;10370;53.102;18.034;2023-07-31T04:22:25;9.50;;;4.43;;
20421;SDS011;10370;53.102;18.034;2023-07-31T04:27:48;7.95;;;4.13;;
20421;SDS011;10370;53.102;18.034;2023-07-31T04:33:11;8.48;;;4.28;;
20421;SDS011;10370;53.102;18.034;2023-07-31T04:38:33;9.80;;;4.20;;
20421;SDS011;10370;53.102;18.034;2023-07-31T04:43:56;6.28;;;3.70;;
20421;SDS011;10370;53.102;18.034;2023-07-31T04:49:19;9.13;;;4.00;;
20421;SDS011;10370;53.102;18.034;2023-07-31T04:54:41;7.57;;;3.65;;
20421;SDS011;10370;53.102;18.034;2023-07-31T05:00:04;6.30;;;3.90;;
20421;SDS011;10370;53.102;18.034;2023-07-31T05:05:27;6.00;;;3.53;;
20421;SDS011;10370;53.102;18.034;2023-07-31T05:10:50;8.80;;;3.08;;
20421;SDS011;10370;53.102;18.034;2023-07-31T05:16:13;5.57;;;2.63;;
20421;SDS011;10370;53.102;18.034;2023-07-31T05:21:35;3.88;;;1.88;;
20421;SDS011;10370;53.102;18.034;2023-07-31T05:26:58;3.05;;;1.90;;
20421;SDS011;10370;53.102;18.034;2023-07-31T05:32:21;7.07;;;2.50;;
20421;SDS011;10370;53.102;18.034;2023-07-31T05:37:43;3.40;;;1.63;;
20421;SDS011;10370;53.102;18.034;2023-07-31T05:43:06;5.53;;;1.88;;
20421;SDS011;10370;53.102;18.034;2023-07-31T05:48:31;4.20;;;1.80;;
20421;SDS011;10370;53.102;18.034;2023-07-31T05:54:02;3.35;;;1.80;;
20421;SDS011;10370;53.102;18.034;2023-07-31T05:59:25;4.70;;;2.00;;
20421;SDS011;10370;53.102;18.034;2023-07-31T06:04:48;7.25;;;2.30;;
20421;SDS011;10370;53.102;18.034;2023-07-31T06:10:11;4.90;;;2.63;;
20421;SDS011;10370;53.102;18.034;2023-07-31T06:15:33;5.25;;;2.50;;
20421;SDS011;10370;53.102;18.034;2023-07-31T06:20:57;22.63;;;3.70;;
20421;SDS011;10370;53.102;18.034;2023-07-31T06:26:19;4.55;;;2.55;;
20421;SDS011;10370;53.102;18.034;2023-07-31T06:31:42;5.25;;;2.55;;
20421;SDS011;10370;53.102;18.034;2023-07-31T06:37:05;7.97;;;2.90;;
20421;SDS011;10370;53.102;18.034;2023-07-31T06:42:28;5.95;;;3.08;;
20421;SDS011;10370;53.102;18.034;2023-07-31T06:47:51;7.63;;;2.97;;
20421;SDS011;10370;53.102;18.034;2023-07-31T06:53:13;7.53;;;3.10;;
20421;SDS011;10370;53.102;18.034;2023-07-31T06:58:36;9.05;;;2.90;;
20421;SDS011;10370;53.102;18.034;2023-07-31T07:03:59;4.40;;;2.17;;
20421;SDS011;10370;53.102;18.034;2023-07-31T07:09:22;6.47;;;2.30;;
20421;SDS011;10370;53.102;18.034;2023-07-31T07:14:45;7.78;;;2.50;;
20421;SDS011;10370;53.102;18.034;2023-07-31T07:20:10;6.88;;;2.58;;
20421;SDS011;10370;53.102;18.034;2023-07-31T07:25:33;5.82;;;2.42;;
20421;SDS011;10370;53.102;18.034;2023-07-31T07:31:00;6.63;;;1.98;;
20421;SDS011;10370;53.102;18.034;2023-07-31T07:36:22;6.75;;;2.50;;
20421;SDS011;10370;53.102;18.034;2023-07-31T07:41:45;7.95;;;2.28;;
20421;SDS011;10370;53.102;18.034;2023-07-31T07:47:08;3.42;;;1.80;;
20421;SDS011;10370;53.102;18.034;2023-07-31T07:52:32;9.55;;;1.88;;
20421;SDS011;10370;53.102;18.034;2023-07-31T07:57:54;3.85;;;1.80;;
20421;SDS011;10370;53.102;18.034;2023-07-31T08:03:17;3.92;;;1.77;;
20421;SDS011;10370;53.102;18.034;2023-07-31T08:08:41;5.40;;;2.03;;
20421;SDS011;10370;53.102;18.034;2023-07-31T08:14:07;6.00;;;1.58;;
20421;SDS011;10370;53.102;18.034;2023-07-31T08:19:29;5.68;;;2.10;;
20421;SDS011;10370;53.102;18.034;2023-07-31T08:24:52;5.47;;;1.90;;
20421;SDS011;10370;53.102;18.034;2023-07-31T08:30:16;4.13;;;1.92;;
20421;SDS011;10370;53.102;18.034;2023-07-31T08:35:41;4.47;;;2.30;;
20421;SDS011;10370;53.102;18.034;2023-07-31T08:41:03;5.82;;;1.98;;
20421;SDS011;10370;53.102;18.034;2023-07-31T08:46:27;4.72;;;2.20;;
20421;SDS011;10370;53.102;18.034;2023-07-31T08:51:50;5.40;;;2.20;;
20421;SDS011;10370;53.102;18.034;2023-07-31T08:57:15;5.03;;;2.53;;
20421;SDS011;10370;53.102;18.034;2023-07-31T09:02:45;6.25;;;2.63;;
20421;SDS011;10370;53.102;18.034;2023-07-31T09:08:19;6.57;;;2.38;;
20421;SDS011;10370;53.102;18.034;2023-07-31T09:13:43;7.05;;;2.55;;
20421;SDS011;10370;53.102;18.034;2023-07-31T09:19:07;6.38;;;2.72;;
20421;SDS011;10370;53.102;18.034;2023-07-31T09:24:31;7.38;;;3.22;;
20421;SDS011;10370;53.102;18.034;2023-07-31T09:29:59;4.30;;;2.72;;
20421;SDS011;10370;53.102;18.034;2023-07-31T09:35:27;4.18;;;2.47;;
20421;SDS011;10370;53.102;18.034;2023-07-31T09:40:53;5.88;;;2.97;;
20421;SDS011;10370;53.102;18.034;2023-07-31T09:46:17;5.68;;;2.85;;
20421;SDS011;10370;53.102;18.034;2023-07-31T09:51:43;8.02;;;3.40;;
20421;SDS011;10370;53.102;18.034;2023-07-31T09:57:06;8.93;;;3.70;;
20421;SDS011;10370;53.102;18.034;2023-07-31T10:02:30;5.65;;;2.75;;
20421;SDS011;10370;53.102;18.034;2023-07-31T10:07:54;6.13;;;3.58;;
20421;SDS011;10370;53.102;18.034;2023-07-31T10:13:17;11.18;;;3.75;;
20421;SDS011;10370;53.102;18.034;2023-07-31T10:18:44;5.28;;;3.30;;
20421;SDS011;10370;53.102;18.034;2023-07-31T10:24:07;5.60;;;3.05;;
20421;SDS011;10370;53.102;18.034;2023-07-31T10:29:31;8.23;;;3.53;;
20421;SDS011;10370;53.102;18.034;2023-07-31T10:34:54;6.57;;;2.80;;
20421;SDS011;10370;53.102;18.034;2023-07-31T10:40:18;10.23;;;2.80;;
20421;SDS011;10370;53.102;18.034;2023-07-31T10:45:50;6.60;;;2.78;;
20421;SDS011;10370;53.102;18.034;2023-07-31T10:51:13;4.97;;;2.90;;
20421;SDS011;10370;53.102;18.034;2023-07-31T10:56:38;6.00;;;2.50;;
20421;SDS011;10370;53.102;18.034;2023-07-31T11:02:01;4.70;;;2.38;;
20421;SDS011;10370;53.102;18.034;2023-07-31T11:07:25;4.15;;;2.00;;
20421;SDS011;10370;53.102;18.034;2023-07-31T11:13:10;5.68;;;2.40;;
20421;SDS011;10370;53.102;18.034;2023-07-31T11:18:33;9.75;;;2.85;;
20421;SDS011;10370;53.102;18.034;2023-07-31T11:23:56;5.35;;;2.35;;
20421;SDS011;10370;53.102;18.034;2023-07-31T11:29:20;6.28;;;2.67;;
20421;SDS011;10370;53.102;18.034;2023-07-31T11:34:52;4.18;;;2.47;;
20421;SDS011;10370;53.102;18.034;2023-07-31T11:40:16;6.63;;;3.05;;
20421;SDS011;10370;53.102;18.034;2023-07-31T11:45:49;4.30;;;2.90;;
20421;SDS011;10370;53.102;18.034;2023-07-31T11:51:22;6.03;;;3.13;;
20421;SDS011;10370;53.102;18.034;2023-07-31T11:56:45;7.10;;;2.95;;
20421;SDS011;10370;53.102;18.034;2023-07-31T12:02:08;3.22;;;2.83;;
20421;SDS011;10370;53.102;18.034;2023-07-31T12:13:23;5.45;;;3.08;;
20421;SDS011;10370;53.102;18.034;2023-07-31T12:18:49;4.88;;;2.80;;
20421;SDS011;10370;53.102;18.034;2023-07-31T12:24:12;9.55;;;3.05;;
20421;SDS011;10370;53.102;18.034;2023-07-31T12:29:43;3.58;;;2.60;;
20421;SDS011;10370;53.102;18.034;2023-07-31T12:35:06;3.15;;;2.47;;
20421;SDS011;10370;53.102;18.034;2023-07-31T12:40:30;4.95;;;2.65;;
20421;SDS011;10370;53.102;18.034;2023-07-31T12:45:54;7.68;;;2.85;;
20421;SDS011;10370;53.102;18.034;2023-07-31T12:51:20;6.15;;;3.50;;
20421;SDS011;10370;53.102;18.034;2023-07-31T12:56:46;6.57;;;3.80;;
20421;SDS011;10370;53.102;18.034;2023-07-31T13:02:09;8.00;;;3.30;;
20421;SDS011;10370;53.102;18.034;2023-07-31T13:07:31;6.80;;;3.40;;
20421;SDS011;10370;53.102;18.034;2023-07-31T13:12:54;4.75;;;3.45;;
20421;SDS011;10370;53.102;18.034;2023-07-31T13:18:17;5.53;;;3.75;;
20421;SDS011;10370;53.102;18.034;2023-07-31T13:23:40;4.75;;;3.40;;
20421;SDS011;10370;53.102;18.034;2023-07-31T13:29:03;5.80;;;3.30;;
20421;SDS011;10370;53.102;18.034;2023-07-31T13:34:26;4.65;;;3.50;;
20421;SDS011;10370;53.102;18.034;2023-07-31T13:39:49;6.03;;;3.10;;
20421;SDS011;10370;53.102;18.034;2023-07-31T13:45:11;3.67;;;2.60;;
20421;SDS011;10370;53.102;18.034;2023-07-31T13:50:35;4.55;;;2.83;;
20421;SDS011;10370;53.102;18.034;2023-07-31T13:55:57;3.72;;;2.85;;
20421;SDS011;10370;53.102;18.034;2023-07-31T14:01:20;4.47;;;2.83;;
20421;SDS011;10370;53.102;18.034;2023-07-31T14:06:43;4.72;;;3.00;;
20421;SDS011;10370;53.102;18.034;2023-07-31T14:12:06;4.28;;;2.75;;
20421;SDS011;10370;53.102;18.034;2023-07-31T14:17:29;3.05;;;2.45;;
20421;SDS011;10370;53.102;18.034;2023-07-31T14:22:55;2.90;;;2.60;;
20421;SDS011;10370;53.102;18.034;2023-07-31T14:28:19;6.00;;;2.95;;
20421;SDS011;10370;53.102;18.034;2023-07-31T14:33:42;3.88;;;2.83;;
20421;SDS011;10370;53.102;18.034;2023-07-31T14:39:05;4.88;;;3.00;;
20421;SDS011;10370;53.102;18.034;2023-07-31T14:44:29;4.78;;;3.42;;
20421;SDS011;10370;53.102;18.034;2023-07-31T14:49:52;3.55;;;3.25;;
20421;SDS011;10370;53.102;18.034;2023-07-31T14:55:18;4.28;;;3.40;;
20421;SDS011;10370;53.102;18.034;2023-07-31T15:00:42;6.57;;;4.22;;
20421;SDS011;10370;53.102;18.034;2023-07-31T15:06:07;4.45;;;3.58;;
20421;SDS011;10370;53.102;18.034;2023-07-31T15:11:30;4.07;;;3.63;;
20421;SDS011;10370;53.102;18.034;2023-07-31T15:16:53;5.55;;;3.47;;
20421;SDS011;10370;53.102;18.034;2023-07-31T15:22:16;6.65;;;3.97;;
20421;SDS011;10370;53.102;18.034;2023-07-31T15:27:39;4.25;;;3.28;;
20421;SDS011;10370;53.102;18.034;2023-07-31T15:33:02;4.40;;;3.47;;
20421;SDS011;10370;53.102;18.034;2023-07-31T15:38:25;4.45;;;3.75;;
20421;SDS011;10370;53.102;18.034;2023-07-31T15:43:48;3.80;;;3.45;;
20421;SDS011;10370;53.102;18.034;2023-07-31T15:49:11;5.47;;;3.67;;
20421;SDS011;10370;53.102;18.034;2023-07-31T15:54:35;7.28;;;3.75;;
20421;SDS011;10370;53.102;18.034;2023-07-31T15:59:58;6.22;;;4.22;;
20421;SDS011;10370;53.102;18.034;2023-07-31T16:05:21;7.55;;;4.38;;
20421;SDS011;10370;53.102;18.034;2023-07-31T16:10:43;6.50;;;4.18;;
20421;SDS011;10370;53.102;18.034;2023-07-31T16:16:06;6.18;;;3.92;;
20421;SDS011;10370;53.102;18.034;2023-07-31T16:21:29;7.35;;;3.60;;
20421;SDS011;10370;53.102;18.034;2023-07-31T16:26:52;6.65;;;4.13;;
20421;SDS011;10370;53.102;18.034;2023-07-31T16:32:15;6.90;;;4.43;;
20421;SDS011;10370;53.102;18.034;2023-07-31T16:37:38;6.65;;;4.13;;
20421;SDS011;10370;53.102;18.034;2023-07-31T16:43:02;4.97;;;3.92;;
20421;SDS011;10370;53.102;18.034;2023-07-31T16:48:25;6.93;;;4.30;;
20421;SDS011;10370;53.102;18.034;2023-07-31T16:53:48;7.25;;;4.22;;
20421;SDS011;10370;53.102;18.034;2023-07-31T16:59:11;6.28;;;3.80;;
20421;SDS011;10370;53.102;18.034;2023-07-31T17:04:41;7.47;;;4.45;;
20421;SDS011;10370;53.102;18.034;2023-07-31T17:10:03;7.15;;;4.13;;
20421;SDS011;10370;53.102;18.034;2023-07-31T17:15:26;5.90;;;4.05;;
20421;SDS011;10370;53.102;18.034;2023-07-31T17:20:49;6.47;;;4.32;;
20421;SDS011;10370;53.102;18.034;2023-07-31T17:26:12;6.72;;;4.32;;
20421;SDS011;10370;53.102;18.034;2023-07-31T17:31:35;8.25;;;4.63;;
20421;SDS011;10370;53.102;18.034;2023-07-31T17:37:03;5.88;;;4.35;;
20421;SDS011;10370;53.102;18.034;2023-07-31T17:42:26;7.85;;;4.53;;
20421;SDS011;10370;53.102;18.034;2023-07-31T17:47:49;8.88;;;4.78;;
20421;SDS011;10370;53.102;18.034;2023-07-31T17:53:13;8.43;;;5.18;;
20421;SDS011;10370;53.102;18.034;2023-07-31T17:58:36;11.48;;;5.57;;
20421;SDS011;10370;53.102;18.034;2023-07-31T18:04:02;8.80;;;6.20;;
20421;SDS011;10370;53.102;18.034;2023-07-31T18:09:26;8.85;;;6.35;;
20421;SDS011;10370;53.102;18.034;2023-07-31T18:14:48;9.50;;;5.75;;
20421;SDS011;10370;53.102;18.034;2023-07-31T18:20:11;12.73;;;5.90;;
20421;SDS011;10370;53.102;18.034;2023-07-31T18:25:34;9.77;;;5.80;;
20421;SDS011;10370;53.102;18.034;2023-07-31T18:30:58;5.93;;;4.70;;
20421;SDS011;10370;53.102;18.034;2023-07-31T18:36:24;9.57;;;4.78;;
20421;SDS011;10370;53.102;18.034;2023-07-31T18:41:47;8.77;;;5.30;;
20421;SDS011;10370;53.102;18.034;2023-07-31T18:47:12;8.02;;;5.10;;
20421;SDS011;10370;53.102;18.034;2023-07-31T18:52:35;9.48;;;4.57;;
20421;SDS011;10370;53.102;18.034;2023-07-31T18:57:59;8.48;;;4.80;;
20421;SDS011;10370;53.102;18.034;2023-07-31T19:03:22;7.35;;;4.38;;
20421;SDS011;10370;53.102;18.034;2023-07-31T19:08:47;8.20;;;4.75;;
20421;SDS011;10370;53.102;18.034;2023-07-31T19:14:09;11.98;;;4.93;;
20421;SDS011;10370;53.102;18.034;2023-07-31T19:19:34;10.68;;;5.30;;
20421;SDS011;10370;53.102;18.034;2023-07-31T19:24:57;6.90;;;5.03;;
20421;SDS011;10370;53.102;18.034;2023-07-31T19:30:20;9.70;;;4.65;;
20421;SDS011;10370;53.102;18.034;2023-07-31T19:35:43;7.50;;;4.53;;
20421;SDS011;10370;53.102;18.034;2023-07-31T19:41:14;6.55;;;4.35;;
20421;SDS011;10370;53.102;18.034;2023-07-31T19:46:37;7.63;;;4.20;;
20421;SDS011;10370;53.102;18.034;2023-07-31T19:52:03;7.65;;;4.80;;
20421;SDS011;10370;53.102;18.034;2023-07-31T19:57:26;6.55;;;4.25;;
20421;SDS011;10370;53.102;18.034;2023-07-31T20:02:49;6.32;;;4.22;;
20421;SDS011;10370;53.102;18.034;2023-07-31T20:08:12;5.82;;;4.18;;
20421;SDS011;10370;53.102;18.034;2023-07-31T20:13:36;5.75;;;3.97;;
20421;SDS011;10370;53.102;18.034;2023-07-31T20:18:58;6.22;;;4.03;;
20421;SDS011;10370;53.102;18.034;2023-07-31T20:24:21;7.85;;;4.40;;
20421;SDS011;10370;53.102;18.034;2023-07-31T20:29:44;8.20;;;4.20;;
20421;SDS011;10370;53.102;18.034;2023-07-31T20:35:06;7.57;;;4.63;;
20421;SDS011;10370;53.102;18.034;2023-07-31T20:40:32;6.88;;;4.22;;
20421;SDS011;10370;53.102;18.034;2023-07-31T20:45:54;6.68;;;4.35;;
20421;SDS011;10370;53.102;18.034;2023-07-31T20:51:17;6.57;;;4.30;;
20421;SDS011;10370;53.102;18.034;2023-07-31T20:56:40;7.00;;;4.18;;
20421;SDS011;10370;53.102;18.034;2023-07-31T21:02:03;8.60;;;4.70;;
20421;SDS011;10370;53.102;18.034;2023-07-31T21:07:26;6.60;;;4.20;;
20421;SDS011;10370;53.102;18.034;2023-07-31T21:12:48;5.43;;;4.00;;
20421;SDS011;10370;53.102;18.034;2023-07-31T21:18:11;10.40;;;4.50;;
20421;SDS011;10370;53.102;18.034;2023-07-31T21:23:34;9.07;;;5.10;;
20421;SDS011;10370;53.102;18.034;2023-07-31T21:28:57;7.88;;;4.90;;
20421;SDS011;10370;53.102;18.034;2023-07-31T21:34:20;9.45;;;4.55;;
20421;SDS011;10370;53.102;18.034;2023-07-31T21:39:42;11.02;;;5.38;;
20421;SDS011;10370;53.102;18.034;2023-07-31T21:45:06;11.05;;;5.63;;
20421;SDS011;10370;53.102;18.034;2023-07-31T21:50:29;8.15;;;5.55;;
20421;SDS011;10370;53.102;18.034;2023-07-31T21:55:51;10.15;;;5.90;;
20421;SDS011;10370;53.102;18.034;2023-07-31T22:01:14;10.13;;;5.60;;
20421;SDS011;10370;53.102;18.034;2023-07-31T22:06:39;10.75;;;5.30;;
20421;SDS011;10370;53.102;18.034;2023-07-31T22:12:02;9.40;;;5.32;;
20421;SDS011;10370;53.102;18.034;2023-07-31T22:17:24;10.65;;;5.18;;
20421;SDS011;10370;53.102;18.034;2023-07-31T22:22:47;10.82;;;4.82;;
20421;SDS011;10370;53.102;18.034;2023-07-31T22:28:10;7.93;;;5.07;;
20421;SDS011;10370;53.102;18.034;2023-07-31T22:33:41;8.18;;;5.15;;
20421;SDS011;10370;53.102;18.034;2023-07-31T22:39:04;7.18;;;4.80;;
20421;SDS011;10370;53.102;18.034;2023-07-31T22:44:27;10.60;;;4.60;;
20421;SDS011;10370;53.102;18.034;2023-07-31T22:49:50;9.25;;;4.88;;
20421;SDS011;10370;53.102;18.034;2023-07-31T22:55:13;8.45;;;4.57;;
20421;SDS011;10370;53.102;18.034;2023-07-31T23:00:36;8.40;;;4.40;;
20421;SDS011;10370;53.102;18.034;2023-07-31T23:05:59;4.85;;;4.03;;
20421;SDS011;10370;53.102;18.034;2023-07-31T23:11:22;8.45;;;4.10;;
20421;SDS011;10370;53.102;18.034;2023-07-31T23:16:45;11.13;;;4.45;;
20421;SDS011;10370;53.102;18.034;2023-07-31T23:22:10;6.38;;;4.70;;
20421;SDS011;10370;53.102;18.034;2023-07-31T23:27:35;5.65;;;4.00;;
20421;SDS011;10370;53.102;18.034;2023-07-31T23:32:58;8.00;;;4.18;;
20421;SDS011;10370;53.102;18.034;2023-07-31T23:38:21;7.35;;;4.30;;
20421;SDS011;10370;53.102;18.034;2023-07-31T23:43:43;7.28;;;4.50;;
20421;SDS011;10370;53.102;18.034;2023-07-31T23:49:06;6.88;;;4.50;;
20421;SDS011;10370;53.102;18.034;2023-07-31T23:54:29;5.50;;;3.88;;
20421;SDS011;10370;53.102;18.034;2023-07-31T23:59:52;6.97;;;3.80;;
